sensor_id;sensor_type;location;lat;lon;timestamp;P1;durP1;ratioP1;P2;durP2;ratioP2
7116;SDS011;3600;48.568;7.870;2023-03-01T00:01:28;15.23;;;10.23;;
7116;SDS011;3600;48.568;7.870;2023-03-01T00:03:56;13.33;;;11.23;;
7116;SDS011;3600;48.568;7.870;2023-03-01T00:06:24;15.93;;;10.17;;
7116;SDS011;3600;48.568;7.870;2023-03-01T00:08:51;14.07;;;10.40;;
7116;SDS011;3600;48.568;7.870;2023-03-01T00:11:22;16.53;;;10.93;;
7116;SDS011;3600;48.568;7.870;2023-03-01T00:13:55;11.43;;;10.23;;
7116;SDS011;3600;48.568;7.870;2023-03-01T00:16:25;13.00;;;9.93;;
7116;SDS011;3600;48.568;7.870;2023-03-01T00:18:53;14.07;;;9.90;;
7116;SDS011;3600;48.568;7.870;2023-03-01T00:21:21;14.43;;;10.10;;
7116;SDS011;3600;48.568;7.870;2023-03-01T00:23:49;13.37;;;10.37;;
7116;SDS011;3600;48.568;7.870;2023-03-01T00:26:16;13.33;;;10.37;;
7116;SDS011;3600;48.568;7.870;2023-03-01T00:28:45;15.03;;;10.93;;
7116;SDS011;3600;48.568;7.870;2023-03-01T00:31:13;15.87;;;10.33;;
7116;SDS011;3600;48.568;7.870;2023-03-01T00:33:43;14.80;;;10.23;;
7116;SDS011;3600;48.568;7.870;2023-03-01T00:36:10;13.30;;;10.57;;
7116;SDS011;3600;48.568;7.870;2023-03-01T00:38:40;14.20;;;10.97;;
7116;SDS011;3600;48.568;7.870;2023-03-01T00:41:13;14.40;;;10.70;;
7116;SDS011;3600;48.568;7.870;2023-03-01T00:43:43;12.83;;;10.40;;
7116;SDS011;3600;48.568;7.870;2023-03-01T00:46:11;15.23;;;11.00;;
7116;SDS011;3600;48.568;7.870;2023-03-01T00:48:43;11.87;;;10.30;;
7116;SDS011;3600;48.568;7.870;2023-03-01T00:51:11;14.87;;;10.47;;
7116;SDS011;3600;48.568;7.870;2023-03-01T00:53:43;12.20;;;10.20;;
7116;SDS011;3600;48.568;7.870;2023-03-01T00:56:11;13.73;;;10.67;;
7116;SDS011;3600;48.568;7.870;2023-03-01T00:58:39;12.10;;;9.93;;
7116;SDS011;3600;48.568;7.870;2023-03-01T01:01:10;13.43;;;10.20;;
7116;SDS011;3600;48.568;7.870;2023-03-01T01:03:46;12.63;;;10.27;;
7116;SDS011;3600;48.568;7.870;2023-03-01T01:06:25;12.03;;;9.77;;
7116;SDS011;3600;48.568;7.870;2023-03-01T01:08:57;12.90;;;9.97;;
7116;SDS011;3600;48.568;7.870;2023-03-01T01:11:25;12.37;;;10.07;;
7116;SDS011;3600;48.568;7.870;2023-03-01T01:13:54;13.83;;;10.83;;
7116;SDS011;3600;48.568;7.870;2023-03-01T01:16:22;12.23;;;10.03;;
7116;SDS011;3600;48.568;7.870;2023-03-01T01:18:49;13.50;;;10.17;;
7116;SDS011;3600;48.568;7.870;2023-03-01T01:21:17;14.47;;;10.83;;
7116;SDS011;3600;48.568;7.870;2023-03-01T01:23:46;12.87;;;10.10;;
7116;SDS011;3600;48.568;7.870;2023-03-01T01:26:14;13.93;;;10.80;;
7116;SDS011;3600;48.568;7.870;2023-03-01T01:28:43;12.20;;;9.93;;
7116;SDS011;3600;48.568;7.870;2023-03-01T01:31:10;15.50;;;10.23;;
7116;SDS011;3600;48.568;7.870;2023-03-01T01:33:37;13.73;;;9.93;;
7116;SDS011;3600;48.568;7.870;2023-03-01T01:36:05;11.60;;;9.70;;
7116;SDS011;3600;48.568;7.870;2023-03-01T01:38:33;14.77;;;10.00;;
7116;SDS011;3600;48.568;7.870;2023-03-01T01:41:00;13.20;;;10.03;;
7116;SDS011;3600;48.568;7.870;2023-03-01T01:43:28;11.10;;;9.43;;
7116;SDS011;3600;48.568;7.870;2023-03-01T01:46:01;13.10;;;9.90;;
7116;SDS011;3600;48.568;7.870;2023-03-01T01:48:40;14.87;;;10.27;;
7116;SDS011;3600;48.568;7.870;2023-03-01T01:51:15;13.13;;;9.70;;
7116;SDS011;3600;48.568;7.870;2023-03-01T01:53:46;12.93;;;10.37;;
7116;SDS011;3600;48.568;7.870;2023-03-01T01:56:16;11.43;;;9.67;;
7116;SDS011;3600;48.568;7.870;2023-03-01T01:58:46;12.10;;;9.30;;
7116;SDS011;3600;48.568;7.870;2023-03-01T02:01:13;13.53;;;10.00;;
7116;SDS011;3600;48.568;7.870;2023-03-01T02:03:40;14.13;;;10.33;;
7116;SDS011;3600;48.568;7.870;2023-03-01T02:08:45;10.73;;;9.20;;
7116;SDS011;3600;48.568;7.870;2023-03-01T02:11:14;13.30;;;10.17;;
7116;SDS011;3600;48.568;7.870;2023-03-01T02:13:42;13.30;;;10.07;;
7116;SDS011;3600;48.568;7.870;2023-03-01T02:16:11;12.83;;;9.97;;
7116;SDS011;3600;48.568;7.870;2023-03-01T02:18:44;12.83;;;10.30;;
7116;SDS011;3600;48.568;7.870;2023-03-01T02:24:20;12.77;;;9.43;;
7116;SDS011;3600;48.568;7.870;2023-03-01T02:27:07;13.50;;;9.43;;
7116;SDS011;3600;48.568;7.870;2023-03-01T02:29:33;10.83;;;9.20;;
7116;SDS011;3600;48.568;7.870;2023-03-01T02:32:01;12.90;;;10.17;;
7116;SDS011;3600;48.568;7.870;2023-03-01T02:34:30;13.07;;;9.10;;
7116;SDS011;3600;48.568;7.870;2023-03-01T02:37:03;13.33;;;10.07;;
7116;SDS011;3600;48.568;7.870;2023-03-01T02:39:44;11.80;;;9.33;;
7116;SDS011;3600;48.568;7.870;2023-03-01T02:42:17;12.73;;;9.67;;
7116;SDS011;3600;48.568;7.870;2023-03-01T02:44:52;14.47;;;10.87;;
7116;SDS011;3600;48.568;7.870;2023-03-01T02:47:19;12.70;;;9.80;;
7116;SDS011;3600;48.568;7.870;2023-03-01T02:49:46;10.97;;;9.77;;
7116;SDS011;3600;48.568;7.870;2023-03-01T02:52:17;12.73;;;9.93;;
7116;SDS011;3600;48.568;7.870;2023-03-01T02:55:08;16.33;;;10.17;;
7116;SDS011;3600;48.568;7.870;2023-03-01T02:57:38;12.70;;;10.33;;
7116;SDS011;3600;48.568;7.870;2023-03-01T03:00:07;14.10;;;10.60;;
7116;SDS011;3600;48.568;7.870;2023-03-01T03:02:46;12.80;;;10.00;;
7116;SDS011;3600;48.568;7.870;2023-03-01T03:05:24;13.80;;;10.40;;
7116;SDS011;3600;48.568;7.870;2023-03-01T03:07:56;14.23;;;9.73;;
7116;SDS011;3600;48.568;7.870;2023-03-01T03:10:25;13.10;;;10.10;;
7116;SDS011;3600;48.568;7.870;2023-03-01T03:13:01;13.40;;;10.17;;
7116;SDS011;3600;48.568;7.870;2023-03-01T03:15:29;13.33;;;10.57;;
7116;SDS011;3600;48.568;7.870;2023-03-01T03:17:57;14.63;;;10.67;;
7116;SDS011;3600;48.568;7.870;2023-03-01T03:20:26;13.50;;;10.20;;
7116;SDS011;3600;48.568;7.870;2023-03-01T03:22:54;12.07;;;9.57;;
7116;SDS011;3600;48.568;7.870;2023-03-01T03:25:22;12.37;;;9.60;;
7116;SDS011;3600;48.568;7.870;2023-03-01T03:27:51;13.87;;;10.07;;
7116;SDS011;3600;48.568;7.870;2023-03-01T03:30:30;14.63;;;11.23;;
7116;SDS011;3600;48.568;7.870;2023-03-01T03:32:57;12.47;;;9.97;;
7116;SDS011;3600;48.568;7.870;2023-03-01T03:35:27;14.70;;;10.60;;
7116;SDS011;3600;48.568;7.870;2023-03-01T03:38:07;13.43;;;9.90;;
7116;SDS011;3600;48.568;7.870;2023-03-01T03:40:51;12.37;;;9.93;;
7116;SDS011;3600;48.568;7.870;2023-03-01T03:43:29;15.30;;;10.90;;
7116;SDS011;3600;48.568;7.870;2023-03-01T03:45:58;12.07;;;10.43;;
7116;SDS011;3600;48.568;7.870;2023-03-01T03:48:25;13.60;;;10.03;;
7116;SDS011;3600;48.568;7.870;2023-03-01T03:50:53;13.47;;;10.70;;
7116;SDS011;3600;48.568;7.870;2023-03-01T03:53:22;13.57;;;11.30;;
7116;SDS011;3600;48.568;7.870;2023-03-01T03:55:50;16.10;;;11.27;;
7116;SDS011;3600;48.568;7.870;2023-03-01T03:58:18;12.17;;;10.27;;
7116;SDS011;3600;48.568;7.870;2023-03-01T04:00:47;14.13;;;10.20;;
7116;SDS011;3600;48.568;7.870;2023-03-01T04:03:16;13.60;;;10.77;;
7116;SDS011;3600;48.568;7.870;2023-03-01T04:05:45;17.00;;;11.00;;
7116;SDS011;3600;48.568;7.870;2023-03-01T04:08:12;12.53;;;9.23;;
7116;SDS011;3600;48.568;7.870;2023-03-01T04:10:40;14.30;;;10.97;;
7116;SDS011;3600;48.568;7.870;2023-03-01T04:13:09;14.17;;;11.30;;
7116;SDS011;3600;48.568;7.870;2023-03-01T04:15:38;14.87;;;11.13;;
7116;SDS011;3600;48.568;7.870;2023-03-01T04:18:06;14.20;;;10.50;;
7116;SDS011;3600;48.568;7.870;2023-03-01T04:20:35;15.13;;;12.03;;
7116;SDS011;3600;48.568;7.870;2023-03-01T04:23:06;12.53;;;10.60;;
7116;SDS011;3600;48.568;7.870;2023-03-01T04:25:40;14.90;;;11.40;;
7116;SDS011;3600;48.568;7.870;2023-03-01T04:28:11;12.77;;;9.90;;
7116;SDS011;3600;48.568;7.870;2023-03-01T04:30:38;17.63;;;11.27;;
7116;SDS011;3600;48.568;7.870;2023-03-01T04:33:05;13.77;;;10.93;;
7116;SDS011;3600;48.568;7.870;2023-03-01T04:35:33;14.67;;;10.93;;
7116;SDS011;3600;48.568;7.870;2023-03-01T04:38:05;15.67;;;11.07;;
7116;SDS011;3600;48.568;7.870;2023-03-01T04:40:32;15.53;;;10.90;;
7116;SDS011;3600;48.568;7.870;2023-03-01T04:42:59;14.10;;;11.70;;
7116;SDS011;3600;48.568;7.870;2023-03-01T04:45:25;17.13;;;12.47;;
7116;SDS011;3600;48.568;7.870;2023-03-01T04:47:54;14.50;;;10.90;;
7116;SDS011;3600;48.568;7.870;2023-03-01T04:50:21;17.27;;;11.33;;
7116;SDS011;3600;48.568;7.870;2023-03-01T04:52:49;15.47;;;11.03;;
7116;SDS011;3600;48.568;7.870;2023-03-01T04:55:16;13.83;;;10.73;;
7116;SDS011;3600;48.568;7.870;2023-03-01T04:57:43;16.23;;;11.73;;
7116;SDS011;3600;48.568;7.870;2023-03-01T05:00:11;14.20;;;11.63;;
7116;SDS011;3600;48.568;7.870;2023-03-01T05:02:56;15.47;;;11.23;;
7116;SDS011;3600;48.568;7.870;2023-03-01T05:05:31;16.30;;;11.07;;
7116;SDS011;3600;48.568;7.870;2023-03-01T05:08:00;15.70;;;11.50;;
7116;SDS011;3600;48.568;7.870;2023-03-01T05:10:29;15.37;;;11.30;;
7116;SDS011;3600;48.568;7.870;2023-03-01T05:12:58;16.40;;;12.20;;
7116;SDS011;3600;48.568;7.870;2023-03-01T05:15:26;15.57;;;11.30;;
7116;SDS011;3600;48.568;7.870;2023-03-01T05:17:54;17.10;;;11.47;;
7116;SDS011;3600;48.568;7.870;2023-03-01T05:20:30;16.87;;;11.20;;
7116;SDS011;3600;48.568;7.870;2023-03-01T05:22:59;18.27;;;12.47;;
7116;SDS011;3600;48.568;7.870;2023-03-01T05:25:26;17.00;;;11.97;;
7116;SDS011;3600;48.568;7.870;2023-03-01T05:28:02;18.17;;;12.17;;
7116;SDS011;3600;48.568;7.870;2023-03-01T05:30:31;13.27;;;11.07;;
7116;SDS011;3600;48.568;7.870;2023-03-01T05:32:59;14.50;;;11.60;;
7116;SDS011;3600;48.568;7.870;2023-03-01T05:35:27;17.97;;;12.40;;
7116;SDS011;3600;48.568;7.870;2023-03-01T05:37:55;15.60;;;11.73;;
7116;SDS011;3600;48.568;7.870;2023-03-01T05:40:22;15.27;;;12.17;;
7116;SDS011;3600;48.568;7.870;2023-03-01T05:42:52;15.57;;;11.40;;
7116;SDS011;3600;48.568;7.870;2023-03-01T05:45:21;14.77;;;10.83;;
7116;SDS011;3600;48.568;7.870;2023-03-01T05:47:49;18.23;;;11.93;;
7116;SDS011;3600;48.568;7.870;2023-03-01T05:55:23;16.13;;;12.23;;
7116;SDS011;3600;48.568;7.870;2023-03-01T05:57:53;15.50;;;11.83;;
7116;SDS011;3600;48.568;7.870;2023-03-01T06:00:20;18.10;;;12.90;;
7116;SDS011;3600;48.568;7.870;2023-03-01T06:02:48;19.20;;;12.03;;
7116;SDS011;3600;48.568;7.870;2023-03-01T06:05:16;15.40;;;12.07;;
7116;SDS011;3600;48.568;7.870;2023-03-01T06:07:44;15.87;;;11.77;;
7116;SDS011;3600;48.568;7.870;2023-03-01T06:10:11;14.40;;;11.33;;
7116;SDS011;3600;48.568;7.870;2023-03-01T06:12:39;18.60;;;13.07;;
7116;SDS011;3600;48.568;7.870;2023-03-01T06:15:07;17.30;;;13.20;;
7116;SDS011;3600;48.568;7.870;2023-03-01T06:17:38;17.60;;;12.87;;
7116;SDS011;3600;48.568;7.870;2023-03-01T06:20:07;17.57;;;12.83;;
7116;SDS011;3600;48.568;7.870;2023-03-01T06:22:35;18.27;;;13.53;;
7116;SDS011;3600;48.568;7.870;2023-03-01T06:25:02;20.33;;;13.77;;
7116;SDS011;3600;48.568;7.870;2023-03-01T06:27:30;18.17;;;13.87;;
7116;SDS011;3600;48.568;7.870;2023-03-01T06:29:57;20.80;;;13.93;;
7116;SDS011;3600;48.568;7.870;2023-03-01T06:32:23;21.97;;;13.40;;
7116;SDS011;3600;48.568;7.870;2023-03-01T06:34:50;19.13;;;12.67;;
7116;SDS011;3600;48.568;7.870;2023-03-01T06:37:17;16.67;;;12.77;;
7116;SDS011;3600;48.568;7.870;2023-03-01T06:39:44;17.67;;;13.23;;
7116;SDS011;3600;48.568;7.870;2023-03-01T06:42:11;21.57;;;13.10;;
7116;SDS011;3600;48.568;7.870;2023-03-01T06:44:37;17.87;;;12.33;;
7116;SDS011;3600;48.568;7.870;2023-03-01T06:47:04;18.93;;;13.53;;
7116;SDS011;3600;48.568;7.870;2023-03-01T06:49:31;16.57;;;13.53;;
7116;SDS011;3600;48.568;7.870;2023-03-01T06:51:58;21.00;;;12.90;;
7116;SDS011;3600;48.568;7.870;2023-03-01T06:54:25;18.63;;;13.63;;
7116;SDS011;3600;48.568;7.870;2023-03-01T06:56:51;20.03;;;13.33;;
7116;SDS011;3600;48.568;7.870;2023-03-01T06:59:18;18.07;;;13.00;;
7116;SDS011;3600;48.568;7.870;2023-03-01T07:01:45;20.10;;;13.33;;
7116;SDS011;3600;48.568;7.870;2023-03-01T07:04:12;20.53;;;13.10;;
7116;SDS011;3600;48.568;7.870;2023-03-01T07:06:40;19.83;;;13.17;;
7116;SDS011;3600;48.568;7.870;2023-03-01T07:09:07;19.03;;;13.57;;
7116;SDS011;3600;48.568;7.870;2023-03-01T07:11:34;18.53;;;13.07;;
7116;SDS011;3600;48.568;7.870;2023-03-01T07:14:01;19.00;;;13.93;;
7116;SDS011;3600;48.568;7.870;2023-03-01T07:16:27;20.53;;;13.23;;
7116;SDS011;3600;48.568;7.870;2023-03-01T07:18:55;17.13;;;12.60;;
7116;SDS011;3600;48.568;7.870;2023-03-01T07:21:23;17.23;;;13.37;;
7116;SDS011;3600;48.568;7.870;2023-03-01T07:23:50;15.77;;;13.00;;
7116;SDS011;3600;48.568;7.870;2023-03-01T07:26:17;17.50;;;13.80;;
7116;SDS011;3600;48.568;7.870;2023-03-01T07:28:44;19.83;;;13.80;;
7116;SDS011;3600;48.568;7.870;2023-03-01T07:31:10;18.50;;;13.43;;
7116;SDS011;3600;48.568;7.870;2023-03-01T07:33:37;16.27;;;12.47;;
7116;SDS011;3600;48.568;7.870;2023-03-01T07:36:04;18.57;;;12.37;;
7116;SDS011;3600;48.568;7.870;2023-03-01T07:38:32;19.77;;;14.60;;
7116;SDS011;3600;48.568;7.870;2023-03-01T07:41:00;18.77;;;13.57;;
7116;SDS011;3600;48.568;7.870;2023-03-01T07:43:29;19.47;;;13.10;;
7116;SDS011;3600;48.568;7.870;2023-03-01T07:46:03;17.83;;;12.73;;
7116;SDS011;3600;48.568;7.870;2023-03-01T07:48:31;18.67;;;14.23;;
7116;SDS011;3600;48.568;7.870;2023-03-01T07:51:02;16.63;;;12.80;;
7116;SDS011;3600;48.568;7.870;2023-03-01T07:53:31;17.00;;;13.67;;
7116;SDS011;3600;48.568;7.870;2023-03-01T07:56:07;16.83;;;12.63;;
7116;SDS011;3600;48.568;7.870;2023-03-01T07:58:39;20.00;;;14.40;;
7116;SDS011;3600;48.568;7.870;2023-03-01T08:01:10;19.43;;;14.07;;
7116;SDS011;3600;48.568;7.870;2023-03-01T08:03:38;15.87;;;12.77;;
7116;SDS011;3600;48.568;7.870;2023-03-01T08:06:07;18.53;;;13.83;;
7116;SDS011;3600;48.568;7.870;2023-03-01T08:08:35;18.50;;;13.43;;
7116;SDS011;3600;48.568;7.870;2023-03-01T08:11:02;20.17;;;14.37;;
7116;SDS011;3600;48.568;7.870;2023-03-01T08:13:31;18.00;;;13.83;;
7116;SDS011;3600;48.568;7.870;2023-03-01T08:16:08;17.70;;;14.23;;
7116;SDS011;3600;48.568;7.870;2023-03-01T08:18:37;20.17;;;13.37;;
7116;SDS011;3600;48.568;7.870;2023-03-01T08:21:05;18.30;;;14.20;;
7116;SDS011;3600;48.568;7.870;2023-03-01T08:23:34;19.27;;;13.47;;
7116;SDS011;3600;48.568;7.870;2023-03-01T08:26:11;20.40;;;14.87;;
7116;SDS011;3600;48.568;7.870;2023-03-01T08:28:39;18.43;;;13.93;;
7116;SDS011;3600;48.568;7.870;2023-03-01T08:31:23;19.67;;;14.23;;
7116;SDS011;3600;48.568;7.870;2023-03-01T08:33:52;17.83;;;13.90;;
7116;SDS011;3600;48.568;7.870;2023-03-01T08:36:22;20.27;;;14.00;;
7116;SDS011;3600;48.568;7.870;2023-03-01T08:38:54;20.07;;;14.70;;
7116;SDS011;3600;48.568;7.870;2023-03-01T08:41:22;16.53;;;13.73;;
7116;SDS011;3600;48.568;7.870;2023-03-01T08:43:49;22.27;;;15.00;;
7116;SDS011;3600;48.568;7.870;2023-03-01T08:46:16;19.33;;;14.03;;
7116;SDS011;3600;48.568;7.870;2023-03-01T08:48:43;20.57;;;13.77;;
7116;SDS011;3600;48.568;7.870;2023-03-01T08:51:11;20.57;;;14.97;;
7116;SDS011;3600;48.568;7.870;2023-03-01T08:53:39;19.23;;;14.60;;
7116;SDS011;3600;48.568;7.870;2023-03-01T08:56:07;16.53;;;13.53;;
7116;SDS011;3600;48.568;7.870;2023-03-01T08:58:35;19.23;;;14.67;;
7116;SDS011;3600;48.568;7.870;2023-03-01T09:01:12;19.47;;;14.43;;
7116;SDS011;3600;48.568;7.870;2023-03-01T09:03:41;22.50;;;14.47;;
7116;SDS011;3600;48.568;7.870;2023-03-01T09:06:09;21.57;;;14.87;;
7116;SDS011;3600;48.568;7.870;2023-03-01T09:08:37;19.13;;;14.63;;
7116;SDS011;3600;48.568;7.870;2023-03-01T09:11:05;18.53;;;14.00;;
7116;SDS011;3600;48.568;7.870;2023-03-01T09:13:33;20.80;;;14.43;;
7116;SDS011;3600;48.568;7.870;2023-03-01T09:16:01;20.73;;;15.37;;
7116;SDS011;3600;48.568;7.870;2023-03-01T09:18:30;18.00;;;13.27;;
7116;SDS011;3600;48.568;7.870;2023-03-01T09:21:04;21.50;;;14.57;;
7116;SDS011;3600;48.568;7.870;2023-03-01T09:23:37;20.97;;;14.90;;
7116;SDS011;3600;48.568;7.870;2023-03-01T09:26:06;19.47;;;14.60;;
7116;SDS011;3600;48.568;7.870;2023-03-01T09:28:37;17.87;;;14.43;;
7116;SDS011;3600;48.568;7.870;2023-03-01T09:31:04;23.70;;;15.17;;
7116;SDS011;3600;48.568;7.870;2023-03-01T09:33:32;25.77;;;13.97;;
7116;SDS011;3600;48.568;7.870;2023-03-01T09:36:03;19.67;;;14.73;;
7116;SDS011;3600;48.568;7.870;2023-03-01T09:38:33;20.43;;;15.10;;
7116;SDS011;3600;48.568;7.870;2023-03-01T09:41:00;19.57;;;14.30;;
7116;SDS011;3600;48.568;7.870;2023-03-01T09:43:49;20.10;;;14.70;;
7116;SDS011;3600;48.568;7.870;2023-03-01T09:46:22;22.70;;;15.03;;
7116;SDS011;3600;48.568;7.870;2023-03-01T09:48:54;19.10;;;14.57;;
7116;SDS011;3600;48.568;7.870;2023-03-01T09:51:26;20.67;;;15.63;;
7116;SDS011;3600;48.568;7.870;2023-03-01T09:54:01;17.93;;;13.73;;
7116;SDS011;3600;48.568;7.870;2023-03-01T09:56:46;20.87;;;14.87;;
7116;SDS011;3600;48.568;7.870;2023-03-01T09:59:41;18.90;;;14.90;;
7116;SDS011;3600;48.568;7.870;2023-03-01T10:10:35;20.03;;;14.70;;
7116;SDS011;3600;48.568;7.870;2023-03-01T10:13:10;21.13;;;14.30;;
7116;SDS011;3600;48.568;7.870;2023-03-01T10:15:50;19.97;;;14.53;;
7116;SDS011;3600;48.568;7.870;2023-03-01T10:18:22;19.07;;;14.13;;
7116;SDS011;3600;48.568;7.870;2023-03-01T10:21:03;21.50;;;15.40;;
7116;SDS011;3600;48.568;7.870;2023-03-01T10:23:43;20.10;;;15.20;;
7116;SDS011;3600;48.568;7.870;2023-03-01T10:26:20;18.13;;;13.53;;
7116;SDS011;3600;48.568;7.870;2023-03-01T10:29:07;21.93;;;14.97;;
7116;SDS011;3600;48.568;7.870;2023-03-01T10:31:42;20.60;;;15.03;;
7116;SDS011;3600;48.568;7.870;2023-03-01T10:39:36;18.80;;;14.60;;
7116;SDS011;3600;48.568;7.870;2023-03-01T10:42:04;25.73;;;15.00;;
7116;SDS011;3600;48.568;7.870;2023-03-01T10:44:46;20.07;;;14.67;;
7116;SDS011;3600;48.568;7.870;2023-03-01T10:47:19;21.70;;;14.87;;
7116;SDS011;3600;48.568;7.870;2023-03-01T10:49:51;20.50;;;14.83;;
7116;SDS011;3600;48.568;7.870;2023-03-01T10:52:30;20.63;;;15.03;;
7116;SDS011;3600;48.568;7.870;2023-03-01T10:54:58;21.53;;;15.87;;
7116;SDS011;3600;48.568;7.870;2023-03-01T10:57:44;16.93;;;13.10;;
7116;SDS011;3600;48.568;7.870;2023-03-01T11:03:19;18.60;;;13.37;;
7116;SDS011;3600;48.568;7.870;2023-03-01T11:05:53;19.87;;;14.77;;
7116;SDS011;3600;48.568;7.870;2023-03-01T11:08:29;21.30;;;15.40;;
7116;SDS011;3600;48.568;7.870;2023-03-01T11:11:06;19.27;;;14.40;;
7116;SDS011;3600;48.568;7.870;2023-03-01T11:13:53;19.73;;;15.13;;
7116;SDS011;3600;48.568;7.870;2023-03-01T11:16:37;20.10;;;15.97;;
7116;SDS011;3600;48.568;7.870;2023-03-01T11:21:40;20.73;;;15.67;;
7116;SDS011;3600;48.568;7.870;2023-03-01T11:24:14;19.90;;;14.83;;
7116;SDS011;3600;48.568;7.870;2023-03-01T11:26:45;17.80;;;14.17;;
7116;SDS011;3600;48.568;7.870;2023-03-01T11:29:30;18.07;;;15.03;;
7116;SDS011;3600;48.568;7.870;2023-03-01T11:32:13;23.97;;;15.83;;
7116;SDS011;3600;48.568;7.870;2023-03-01T11:34:53;19.70;;;14.80;;
7116;SDS011;3600;48.568;7.870;2023-03-01T11:37:37;19.63;;;14.90;;
7116;SDS011;3600;48.568;7.870;2023-03-01T11:42:43;20.37;;;15.17;;
7116;SDS011;3600;48.568;7.870;2023-03-01T11:45:19;19.83;;;14.37;;
7116;SDS011;3600;48.568;7.870;2023-03-01T11:48:02;20.77;;;15.07;;
7116;SDS011;3600;48.568;7.870;2023-03-01T11:50:44;20.10;;;14.83;;
7116;SDS011;3600;48.568;7.870;2023-03-01T11:53:23;19.93;;;14.80;;
7116;SDS011;3600;48.568;7.870;2023-03-01T11:56:16;19.57;;;15.40;;
7116;SDS011;3600;48.568;7.870;2023-03-01T11:59:13;22.67;;;16.97;;
7116;SDS011;3600;48.568;7.870;2023-03-01T12:07:55;19.73;;;14.13;;
7116;SDS011;3600;48.568;7.870;2023-03-01T12:10:37;21.40;;;15.23;;
7116;SDS011;3600;48.568;7.870;2023-03-01T12:16:20;18.30;;;14.60;;
7116;SDS011;3600;48.568;7.870;2023-03-01T12:19:10;19.87;;;15.17;;
7116;SDS011;3600;48.568;7.870;2023-03-01T12:27:55;20.20;;;15.80;;
7116;SDS011;3600;48.568;7.870;2023-03-01T12:30:34;20.77;;;15.17;;
7116;SDS011;3600;48.568;7.870;2023-03-01T12:38:42;21.63;;;16.07;;
7116;SDS011;3600;48.568;7.870;2023-03-01T12:44:11;19.87;;;15.30;;
7116;SDS011;3600;48.568;7.870;2023-03-01T12:46:49;21.70;;;16.83;;
7116;SDS011;3600;48.568;7.870;2023-03-01T12:49:20;20.63;;;15.17;;
7116;SDS011;3600;48.568;7.870;2023-03-01T12:54:36;19.23;;;14.83;;
7116;SDS011;3600;48.568;7.870;2023-03-01T12:57:16;19.67;;;15.40;;
7116;SDS011;3600;48.568;7.870;2023-03-01T13:00:24;20.07;;;15.97;;
7116;SDS011;3600;48.568;7.870;2023-03-01T13:03:15;17.30;;;14.53;;
7116;SDS011;3600;48.568;7.870;2023-03-01T13:09:11;18.23;;;14.30;;
7116;SDS011;3600;48.568;7.870;2023-03-01T13:11:49;20.63;;;15.97;;
7116;SDS011;3600;48.568;7.870;2023-03-01T13:16:50;23.67;;;15.87;;
7116;SDS011;3600;48.568;7.870;2023-03-01T13:19:24;19.70;;;15.27;;
7116;SDS011;3600;48.568;7.870;2023-03-01T13:21:53;19.33;;;14.63;;
7116;SDS011;3600;48.568;7.870;2023-03-01T13:24:35;18.93;;;15.40;;
7116;SDS011;3600;48.568;7.870;2023-03-01T13:32:25;19.23;;;15.10;;
7116;SDS011;3600;48.568;7.870;2023-03-01T13:37:45;17.17;;;14.13;;
7116;SDS011;3600;48.568;7.870;2023-03-01T13:45:34;18.67;;;14.90;;
7116;SDS011;3600;48.568;7.870;2023-03-01T13:48:09;18.33;;;14.60;;
7116;SDS011;3600;48.568;7.870;2023-03-01T13:50:46;19.53;;;14.77;;
7116;SDS011;3600;48.568;7.870;2023-03-01T13:53:17;16.40;;;14.43;;
7116;SDS011;3600;48.568;7.870;2023-03-01T13:55:55;19.87;;;14.97;;
7116;SDS011;3600;48.568;7.870;2023-03-01T13:58:31;19.70;;;15.33;;
7116;SDS011;3600;48.568;7.870;2023-03-01T14:01:00;16.47;;;14.27;;
7116;SDS011;3600;48.568;7.870;2023-03-01T14:03:30;17.80;;;14.47;;
7116;SDS011;3600;48.568;7.870;2023-03-01T14:08:47;17.70;;;15.07;;
7116;SDS011;3600;48.568;7.870;2023-03-01T14:11:40;20.13;;;14.50;;
7116;SDS011;3600;48.568;7.870;2023-03-01T14:19:30;18.93;;;14.43;;
7116;SDS011;3600;48.568;7.870;2023-03-01T14:22:19;22.30;;;16.10;;
7116;SDS011;3600;48.568;7.870;2023-03-01T14:24:56;17.87;;;13.60;;
7116;SDS011;3600;48.568;7.870;2023-03-01T14:27:30;18.50;;;14.60;;
7116;SDS011;3600;48.568;7.870;2023-03-01T14:30:03;18.53;;;14.50;;
7116;SDS011;3600;48.568;7.870;2023-03-01T14:32:52;21.83;;;14.27;;
7116;SDS011;3600;48.568;7.870;2023-03-01T14:35:27;21.83;;;15.00;;
7116;SDS011;3600;48.568;7.870;2023-03-01T14:37:57;18.17;;;15.13;;
7116;SDS011;3600;48.568;7.870;2023-03-01T14:40:35;18.47;;;14.67;;
7116;SDS011;3600;48.568;7.870;2023-03-01T14:43:08;18.33;;;14.07;;
7116;SDS011;3600;48.568;7.870;2023-03-01T14:45:38;20.10;;;14.63;;
7116;SDS011;3600;48.568;7.870;2023-03-01T14:48:05;18.00;;;15.03;;
7116;SDS011;3600;48.568;7.870;2023-03-01T14:50:34;22.20;;;14.90;;
7116;SDS011;3600;48.568;7.870;2023-03-01T14:53:04;18.37;;;14.10;;
7116;SDS011;3600;48.568;7.870;2023-03-01T14:55:37;18.87;;;14.23;;
7116;SDS011;3600;48.568;7.870;2023-03-01T14:58:14;18.97;;;14.93;;
7116;SDS011;3600;48.568;7.870;2023-03-01T15:00:58;18.63;;;14.20;;
7116;SDS011;3600;48.568;7.870;2023-03-01T15:03:34;18.50;;;13.93;;
7116;SDS011;3600;48.568;7.870;2023-03-01T15:06:03;20.67;;;15.37;;
7116;SDS011;3600;48.568;7.870;2023-03-01T15:08:32;20.10;;;15.07;;
7116;SDS011;3600;48.568;7.870;2023-03-01T15:11:04;16.40;;;14.53;;
7116;SDS011;3600;48.568;7.870;2023-03-01T15:13:43;20.63;;;14.80;;
7116;SDS011;3600;48.568;7.870;2023-03-01T15:16:13;18.60;;;14.97;;
7116;SDS011;3600;48.568;7.870;2023-03-01T15:18:53;20.90;;;15.30;;
7116;SDS011;3600;48.568;7.870;2023-03-01T15:21:25;20.07;;;14.97;;
7116;SDS011;3600;48.568;7.870;2023-03-01T15:26:42;18.97;;;14.33;;
7116;SDS011;3600;48.568;7.870;2023-03-01T15:29:16;18.70;;;14.50;;
7116;SDS011;3600;48.568;7.870;2023-03-01T15:31:53;17.83;;;14.40;;
7116;SDS011;3600;48.568;7.870;2023-03-01T15:36:54;17.83;;;14.60;;
7116;SDS011;3600;48.568;7.870;2023-03-01T15:42:23;19.20;;;14.77;;
7116;SDS011;3600;48.568;7.870;2023-03-01T15:47:57;19.03;;;14.50;;
7116;SDS011;3600;48.568;7.870;2023-03-01T15:50:30;19.93;;;14.70;;
7116;SDS011;3600;48.568;7.870;2023-03-01T15:53:05;20.07;;;15.73;;
7116;SDS011;3600;48.568;7.870;2023-03-01T15:55:37;18.63;;;14.60;;
7116;SDS011;3600;48.568;7.870;2023-03-01T15:58:13;17.53;;;15.63;;
7116;SDS011;3600;48.568;7.870;2023-03-01T16:00:43;21.33;;;14.23;;
7116;SDS011;3600;48.568;7.870;2023-03-01T16:03:24;18.53;;;14.80;;
7116;SDS011;3600;48.568;7.870;2023-03-01T16:05:51;17.20;;;13.73;;
7116;SDS011;3600;48.568;7.870;2023-03-01T16:08:18;17.43;;;13.97;;
7116;SDS011;3600;48.568;7.870;2023-03-01T16:10:45;18.83;;;14.90;;
7116;SDS011;3600;48.568;7.870;2023-03-01T16:13:14;17.60;;;14.60;;
7116;SDS011;3600;48.568;7.870;2023-03-01T16:15:41;19.20;;;14.10;;
7116;SDS011;3600;48.568;7.870;2023-03-01T16:18:08;17.77;;;13.97;;
7116;SDS011;3600;48.568;7.870;2023-03-01T16:20:36;19.57;;;14.20;;
7116;SDS011;3600;48.568;7.870;2023-03-01T16:23:05;19.70;;;14.47;;
7116;SDS011;3600;48.568;7.870;2023-03-01T16:25:35;17.00;;;14.50;;
7116;SDS011;3600;48.568;7.870;2023-03-01T16:28:02;18.57;;;13.63;;
7116;SDS011;3600;48.568;7.870;2023-03-01T16:30:35;18.73;;;14.30;;
7116;SDS011;3600;48.568;7.870;2023-03-01T16:33:08;20.57;;;14.20;;
7116;SDS011;3600;48.568;7.870;2023-03-01T16:35:55;17.57;;;14.07;;
7116;SDS011;3600;48.568;7.870;2023-03-01T16:38:22;19.67;;;14.77;;
7116;SDS011;3600;48.568;7.870;2023-03-01T16:40:49;16.67;;;13.70;;
7116;SDS011;3600;48.568;7.870;2023-03-01T16:43:17;17.13;;;14.20;;
7116;SDS011;3600;48.568;7.870;2023-03-01T16:45:44;19.97;;;15.17;;
7116;SDS011;3600;48.568;7.870;2023-03-01T16:48:12;17.37;;;14.13;;
7116;SDS011;3600;48.568;7.870;2023-03-01T16:50:39;17.60;;;14.20;;
7116;SDS011;3600;48.568;7.870;2023-03-01T16:53:05;18.60;;;14.37;;